Time;durP1;ratioP1;P1;durP2;ratioP2;P2;SDS_P1;SDS_P2;PMS_P1;PMS_P2;Temp;Humidity;BMP_temperature;BMP_pressure;BME280_temperature;BME280_humidity;BME280_pressure;Samples;Min_cycle;Max_cycle;Signal;HPM_P1;HPM_P2
2023/10/31 00:01:50;;;;;;;0.40;0.40;;;;;;;14.19;100.00;98662.47;5097260;28;20088;-57
2023/10/31 00:04:15;;;;;;;0.40;0.40;;;;;;;14.12;100.00;98655.81;5094906;28;20141;-58
2023/10/31 00:06:41;;;;;;;0.40;0.40;;;;;;;14.07;100.00;98665.97;5097458;28;20088;-57
2023/10/31 00:09:07;;;;;;;0.50;0.50;;;;;;;13.99;100.00;98666.50;5102586;28;20032;-57
2023/10/31 00:11:32;;;;;;;0.50;0.50;;;;;;;13.93;100.00;98663.38;5097812;28;20008;-57
2023/10/31 00:13:58;;;;;;;0.50;0.50;;;;;;;13.84;100.00;98663.97;5095759;28;20047;-57
2023/10/31 00:16:23;;;;;;;0.50;0.50;;;;;;;13.83;100.00;98656.94;5095191;28;20471;-57
2023/10/31 00:18:49;;;;;;;0.40;0.40;;;;;;;13.79;100.00;98655.44;5096233;28;20012;-57
2023/10/31 00:21:14;;;;;;;0.50;0.50;;;;;;;13.74;100.00;98665.59;5096964;28;20019;-57
2023/10/31 00:23:44;;;;;;;0.43;0.43;;;;;;;13.67;100.00;98658.94;5099860;28;20035;-57
2023/10/31 00:26:09;;;;;;;0.40;0.40;;;;;;;13.66;100.00;98657.19;5088264;28;20027;-57
2023/10/31 00:28:35;;;;;;;0.50;0.50;;;;;;;13.67;100.00;98659.78;5089122;28;20085;-57
2023/10/31 00:31:01;;;;;;;0.50;0.50;;;;;;;13.63;100.00;98665.41;5107154;28;20028;-57
2023/10/31 00:33:27;;;;;;;0.40;0.40;;;;;;;13.64;100.00;98664.47;5105247;28;20031;-57
2023/10/31 00:35:52;;;;;;;0.50;0.50;;;;;;;13.66;100.00;98660.72;5093976;28;20060;-57
2023/10/31 00:38:17;;;;;;;0.50;0.50;;;;;;;13.63;100.00;98662.75;5092877;28;20153;-57
2023/10/31 00:40:43;;;;;;;0.50;0.50;;;;;;;13.59;100.00;98661.25;5101299;28;20563;-57
2023/10/31 00:43:08;;;;;;;0.50;0.50;;;;;;;13.66;100.00;98667.88;5086419;28;20032;-57
2023/10/31 00:45:34;;;;;;;0.50;0.50;;;;;;;13.71;100.00;98666.63;5087361;28;20036;-57
2023/10/31 00:47:59;;;;;;;0.60;0.60;;;;;;;13.78;100.00;98669.75;5092565;28;20024;-57
2023/10/31 00:50:24;;;;;;;0.50;0.50;;;;;;;13.81;100.00;98666.88;5110373;28;20027;-57
2023/10/31 00:52:50;;;;;;;0.50;0.50;;;;;;;13.81;100.00;98661.53;5105460;28;20019;-57
2023/10/31 00:55:16;;;;;;;0.50;0.50;;;;;;;13.80;100.00;98659.81;5110348;28;20030;-57
2023/10/31 00:57:41;;;;;;;0.50;0.50;;;;;;;13.77;100.00;98665.38;5107774;28;20035;-57
2023/10/31 01:00:08;;;;;;;0.50;0.50;;;;;;;13.76;100.00;98669.00;5090965;28;20106;-57
2023/10/31 01:02:34;;;;;;;0.50;0.50;;;;;;;13.75;100.00;98667.28;5091705;28;20028;-57
2023/10/31 01:04:59;;;;;;;0.50;0.50;;;;;;;13.73;100.00;98672.75;5110134;28;20032;-57
2023/10/31 01:07:24;;;;;;;0.40;0.40;;;;;;;13.71;100.00;98671.09;5101847;28;20032;-57
2023/10/31 01:09:50;;;;;;;0.50;0.50;;;;;;;13.68;100.00;98677.53;5089971;28;20028;-57
2023/10/31 01:12:15;;;;;;;0.50;0.50;;;;;;;13.67;100.00;98678.50;5096130;28;20495;-57
2023/10/31 01:14:41;;;;;;;0.50;0.50;;;;;;;13.68;100.00;98671.31;5107127;28;20047;-57
2023/10/31 01:17:06;;;;;;;0.50;0.50;;;;;;;13.66;100.00;98686.59;5110273;28;20077;-57
2023/10/31 01:19:32;;;;;;;0.50;0.50;;;;;;;13.60;100.00;98689.69;5105836;28;20031;-57
2023/10/31 01:21:57;;;;;;;0.50;0.50;;;;;;;13.62;100.00;98687.75;5091621;28;20032;-57
2023/10/31 01:24:23;;;;;;;0.50;0.50;;;;;;;13.62;100.00;98690.44;5105639;28;20027;-58
2023/10/31 01:26:49;;;;;;;0.50;0.50;;;;;;;13.57;100.00;98684.53;5091602;28;20020;-58
2023/10/31 01:29:14;;;;;;;0.52;0.52;;;;;;;13.55;100.00;98689.13;5095325;28;20376;-58
2023/10/31 01:31:43;;;;;;;0.50;0.50;;;;;;;13.49;100.00;98682.38;5091519;28;20422;-58
2023/10/31 01:34:08;;;;;;;0.50;0.50;;;;;;;13.44;100.00;98683.63;5096376;28;20406;-58
2023/10/31 01:36:34;;;;;;;0.50;0.50;;;;;;;13.39;100.00;98688.41;5089125;28;20055;-58
2023/10/31 01:38:59;;;;;;;0.47;0.47;;;;;;;13.32;100.00;98690.63;5089260;28;20028;-58
2023/10/31 01:41:25;;;;;;;0.50;0.50;;;;;;;13.27;100.00;98679.38;5092158;28;20450;-58
2023/10/31 01:43:50;;;;;;;0.47;0.47;;;;;;;13.23;100.00;98690.38;5090373;28;20024;-58
2023/10/31 01:46:16;;;;;;;0.60;0.60;;;;;;;13.15;100.00;98694.38;5100811;28;20032;-58
2023/10/31 01:48:42;;;;;;;0.50;0.50;;;;;;;13.16;100.00;98696.06;5100620;28;20034;-58
2023/10/31 01:51:09;;;;;;;0.50;0.50;;;;;;;13.14;100.00;98702.50;5110269;28;20059;-58
2023/10/31 01:53:35;;;;;;;0.50;0.50;;;;;;;13.07;100.00;98709.16;5107691;28;20499;-58
2023/10/31 01:56:01;;;;;;;0.57;0.57;;;;;;;13.02;100.00;98709.47;5110504;28;20059;-58
2023/10/31 01:58:32;;;;;;;0.50;0.50;;;;;;;13.06;100.00;98716.31;5105664;28;20077;-58
2023/10/31 02:01:00;;;;;;;0.50;0.50;;;;;;;13.10;100.00;98716.97;5110849;28;20526;-58
2023/10/31 02:03:25;;;;;;;0.50;0.50;;;;;;;13.13;100.00;98719.44;5097371;28;20491;-58
2023/10/31 02:05:54;;;;;;;0.60;0.60;;;;;;;13.16;100.00;98720.09;5093771;28;20032;-58
2023/10/31 02:08:20;;;;;;;0.50;0.50;;;;;;;13.17;100.00;98716.50;5100714;28;20440;-58
2023/10/31 02:10:45;;;;;;;0.50;0.50;;;;;;;13.17;100.00;98724.50;5098938;28;20034;-58
2023/10/31 02:13:12;;;;;;;0.50;0.50;;;;;;;13.13;100.00;98720.31;5089959;28;20392;-58
2023/10/31 02:15:37;;;;;;;0.52;0.52;;;;;;;13.15;100.00;98717.53;5092046;28;20034;-58
2023/10/31 02:18:03;;;;;;;0.50;0.50;;;;;;;13.13;100.00;98722.13;5089323;28;20024;-58
2023/10/31 02:20:28;;;;;;;0.50;0.50;;;;;;;13.11;100.00;98727.56;5089731;28;20358;-58
2023/10/31 02:22:54;;;;;;;0.50;0.50;;;;;;;13.08;100.00;98719.75;5102059;28;20039;-58
2023/10/31 02:25:19;;;;;;;0.50;0.50;;;;;;;13.08;100.00;98732.22;5088130;28;20096;-58
2023/10/31 02:27:45;;;;;;;0.50;0.50;;;;;;;13.11;100.00;98734.72;5096127;28;20051;-58
2023/10/31 02:30:11;;;;;;;0.55;0.55;;;;;;;13.15;100.00;98741.56;5107568;28;20483;-58
2023/10/31 02:32:36;;;;;;;0.50;0.50;;;;;;;13.17;100.00;98743.19;5093047;28;20027;-58
2023/10/31 02:35:02;;;;;;;0.50;0.50;;;;;;;13.21;100.00;98744.72;5103699;28;20463;-57
2023/10/31 02:37:27;;;;;;;0.50;0.50;;;;;;;13.23;100.00;98740.13;5109540;28;20240;-57
2023/10/31 02:39:52;;;;;;;0.50;0.50;;;;;;;13.25;100.00;98742.69;5108187;28;20110;-57
2023/10/31 02:42:18;;;;;;;0.50;0.50;;;;;;;13.30;100.00;98747.75;5089659;28;20032;-57
2023/10/31 02:44:43;;;;;;;0.50;0.50;;;;;;;13.23;100.00;98745.47;5089734;28;20032;-57
2023/10/31 02:47:09;;;;;;;0.43;0.43;;;;;;;13.20;100.00;98745.69;5089792;28;20077;-57
2023/10/31 02:49:34;;;;;;;0.50;0.50;;;;;;;13.19;100.00;98764.47;5103012;28;20028;-57
2023/10/31 02:51:59;;;;;;;0.50;0.50;;;;;;;13.17;100.00;98766.38;5109663;28;20089;-57
2023/10/31 02:54:25;;;;;;;0.50;0.50;;;;;;;13.14;100.00;98772.78;5107486;28;20465;-57
2023/10/31 02:56:50;;;;;;;0.50;0.50;;;;;;;13.16;100.00;98773.50;5107889;28;20084;-57
2023/10/31 02:59:15;;;;;;;0.50;0.50;;;;;;;13.11;100.00;98777.44;5103361;28;20561;-57
2023/10/31 03:01:41;;;;;;;0.50;0.50;;;;;;;13.11;100.00;98780.09;5105007;28;20122;-57
2023/10/31 03:04:06;;;;;;;0.50;0.50;;;;;;;13.10;100.00;98768.56;5096808;28;20024;-57
2023/10/31 03:06:32;;;;;;;0.43;0.43;;;;;;;13.14;100.00;98778.09;5090830;28;20035;-57
2023/10/31 03:08:57;;;;;;;0.57;0.57;;;;;;;13.14;100.00;98783.44;5089166;28;20077;-57
2023/10/31 03:11:24;;;;;;;0.60;0.60;;;;;;;13.12;100.00;98793.38;5088326;28;20031;-57
2023/10/31 03:13:50;;;;;;;0.45;0.45;;;;;;;13.12;100.00;98788.03;5087402;28;20055;-57
2023/10/31 03:16:16;;;;;;;0.40;0.40;;;;;;;13.07;100.00;98798.13;5089533;28;20108;-57
2023/10/31 03:18:42;;;;;;;0.50;0.50;;;;;;;13.10;100.00;98787.25;5086445;28;20178;-57
2023/10/31 03:21:07;;;;;;;0.50;0.50;;;;;;;13.12;100.00;98796.03;5089132;28;20077;-57
2023/10/31 03:23:33;;;;;;;0.50;0.50;;;;;;;13.03;100.00;98788.56;5087202;28;20035;-57
2023/10/31 03:25:58;;;;;;;0.50;0.50;;;;;;;13.07;100.00;98808.81;5087977;28;20040;-57
2023/10/31 03:28:24;;;;;;;0.50;0.50;;;;;;;13.03;100.00;98812.59;5091508;28;20481;-57
2023/10/31 03:30:50;;;;;;;0.60;0.60;;;;;;;13.12;100.00;98824.53;5089180;28;20114;-57
2023/10/31 03:33:16;;;;;;;0.50;0.50;;;;;;;13.07;100.00;98813.28;5093193;28;20024;-57
2023/10/31 03:35:43;;;;;;;0.50;0.50;;;;;;;13.02;100.00;98823.38;5090169;28;20032;-57
2023/10/31 03:38:08;;;;;;;0.60;0.60;;;;;;;13.03;100.00;98817.94;5089041;28;20114;-57
2023/10/31 03:40:33;;;;;;;0.55;0.55;;;;;;;13.01;100.00;98833.19;5098587;28;20102;-57
2023/10/31 03:42:59;;;;;;;0.50;0.50;;;;;;;13.07;100.00;98846.19;5083565;28;20453;-57
2023/10/31 03:45:24;;;;;;;0.60;0.60;;;;;;;13.12;100.00;98838.75;5088892;28;20077;-58
2023/10/31 03:47:49;;;;;;;0.50;0.50;;;;;;;13.17;100.00;98846.47;5093751;28;20136;-58
2023/10/31 03:50:15;;;;;;;0.50;0.50;;;;;;;13.13;100.00;98844.91;5092841;28;20032;-58
2023/10/31 03:52:40;;;;;;;0.50;0.50;;;;;;;13.11;100.00;98852.19;5100598;28;20023;-57
2023/10/31 03:55:06;;;;;;;0.60;0.60;;;;;;;13.10;100.00;98856.66;5093869;28;20031;-58
2023/10/31 03:57:32;;;;;;;0.60;0.60;;;;;;;13.03;100.00;98852.63;5105095;28;20221;-58
2023/10/31 03:59:57;;;;;;;0.50;0.50;;;;;;;13.00;100.00;98844.78;5108707;28;20118;-57
2023/10/31 04:02:23;;;;;;;0.50;0.50;;;;;;;12.96;100.00;98842.41;5099024;28;20038;-57
2023/10/31 04:04:48;;;;;;;0.60;0.60;;;;;;;12.97;100.00;98849.44;5106919;28;20032;-57
2023/10/31 04:07:14;;;;;;;0.50;0.50;;;;;;;12.97;100.00;98839.66;5108853;28;20031;-57
2023/10/31 04:09:40;;;;;;;0.50;0.50;;;;;;;13.02;100.00;98848.28;5105312;28;20038;-58
2023/10/31 04:12:05;;;;;;;0.40;0.40;;;;;;;12.98;100.00;98846.69;5095790;28;20468;-57
2023/10/31 04:14:31;;;;;;;0.50;0.50;;;;;;;12.98;100.00;98846.69;5087346;28;20044;-57
2023/10/31 04:16:56;;;;;;;0.40;0.40;;;;;;;12.97;100.00;98838.78;5088925;28;20028;-57
2023/10/31 04:19:22;;;;;;;0.50;0.50;;;;;;;12.88;100.00;98842.84;5094043;28;20497;-57
2023/10/31 04:21:47;;;;;;;0.60;0.60;;;;;;;12.98;100.00;98841.34;5110669;28;20031;-58
2023/10/31 04:24:12;;;;;;;0.50;0.50;;;;;;;13.08;100.00;98847.88;5096908;28;20032;-57
2023/10/31 04:26:40;;;;;;;0.52;0.52;;;;;;;13.09;100.00;98832.72;5092699;28;20180;-58
2023/10/31 04:29:05;;;;;;;0.50;0.50;;;;;;;13.05;100.00;98842.75;5091572;28;20032;-57
2023/10/31 04:31:31;;;;;;;0.50;0.50;;;;;;;13.02;100.00;98847.41;5092494;28;20024;-58
2023/10/31 04:33:56;;;;;;;0.60;0.60;;;;;;;13.00;100.00;98843.94;5108974;28;20038;-58
2023/10/31 04:36:22;;;;;;;0.50;0.50;;;;;;;13.03;100.00;98843.78;5110080;28;20029;-58
2023/10/31 04:38:47;;;;;;;0.45;0.45;;;;;;;13.06;100.00;98854.28;5112426;28;20161;-57
2023/10/31 04:41:12;;;;;;;0.50;0.50;;;;;;;13.05;100.00;98845.41;5096701;28;20027;-57
2023/10/31 04:43:41;;;;;;;0.50;0.50;;;;;;;13.01;100.00;98849.19;5093412;28;20032;-58
2023/10/31 04:46:07;;;;;;;0.50;0.50;;;;;;;12.95;100.00;98849.56;5094813;28;20107;-58
2023/10/31 04:48:32;;;;;;;0.50;0.50;;;;;;;12.97;100.00;98838.78;5098090;28;20111;-58
2023/10/31 04:50:58;;;;;;;0.50;0.50;;;;;;;12.99;100.00;98837.75;5111924;28;20623;-57
2023/10/31 04:53:23;;;;;;;0.50;0.50;;;;;;;13.00;100.00;98844.78;5111733;28;20032;-58
2023/10/31 04:55:49;;;;;;;0.50;0.50;;;;;;;12.98;100.00;98846.69;5106798;28;20368;-57
2023/10/31 04:58:14;;;;;;;0.60;0.60;;;;;;;12.94;100.00;98850.50;5111952;28;20083;-56
2023/10/31 05:00:40;;;;;;;0.50;0.50;;;;;;;12.94;100.00;98850.50;5107739;28;20023;-57
2023/10/31 05:03:06;;;;;;;0.60;0.60;;;;;;;12.93;100.00;98850.59;5110178;28;20028;-56
2023/10/31 05:05:32;;;;;;;0.60;0.60;;;;;;;12.89;100.00;98855.28;5090473;28;20140;-57
2023/10/31 05:07:58;;;;;;;0.60;0.60;;;;;;;12.89;100.00;98857.94;5093693;28;20322;-57
2023/10/31 05:10:23;;;;;;;0.50;0.50;;;;;;;12.95;100.00;98860.22;5089735;28;20107;-57
2023/10/31 05:12:50;;;;;;;0.60;0.60;;;;;;;12.96;100.00;98864.59;5089443;28;20502;-57
2023/10/31 05:15:16;;;;;;;0.50;0.50;;;;;;;13.04;100.00;98873.06;5098407;28;20516;-57
2023/10/31 05:17:41;;;;;;;0.50;0.50;;;;;;;13.07;100.00;98870.19;5105130;28;20099;-57
2023/10/31 05:20:08;;;;;;;0.50;0.50;;;;;;;13.06;100.00;98870.31;5108483;28;20454;-57
2023/10/31 05:22:34;;;;;;;0.60;0.60;;;;;;;13.06;100.00;98871.13;5107921;28;20016;-57
2023/10/31 05:24:59;;;;;;;0.50;0.50;;;;;;;13.05;100.00;98879.25;5104305;28;20035;-57
2023/10/31 05:27:24;;;;;;;0.50;0.50;;;;;;;13.09;100.00;98889.66;5089214;28;20053;-57
2023/10/31 05:29:50;;;;;;;0.50;0.50;;;;;;;13.12;100.00;98892.16;5089492;28;20114;-57
2023/10/31 05:32:15;;;;;;;0.50;0.50;;;;;;;13.11;100.00;98879.72;5102542;28;20023;-57
2023/10/31 05:34:41;;;;;;;0.50;0.50;;;;;;;13.01;100.00;98873.22;5093129;28;20042;-57
2023/10/31 05:37:07;;;;;;;0.45;0.45;;;;;;;13.04;100.00;98888.22;5090049;28;20076;-57
2023/10/31 05:39:32;;;;;;;0.57;0.57;;;;;;;13.03;100.00;98881.16;5091024;28;20535;-57
2023/10/31 05:41:58;;;;;;;0.50;0.50;;;;;;;13.04;100.00;98896.22;5091155;28;20081;-57
2023/10/31 05:44:23;;;;;;;0.52;0.52;;;;;;;13.04;100.00;98899.75;5092633;28;20032;-57
2023/10/31 05:46:49;;;;;;;0.50;0.50;;;;;;;13.02;100.00;98915.00;5090397;28;20121;-57
2023/10/31 05:49:14;;;;;;;0.60;0.60;;;;;;;13.02;100.00;98917.66;5097505;28;20393;-57
2023/10/31 05:51:40;;;;;;;0.50;0.50;;;;;;;12.99;100.00;98924.97;5092816;28;20035;-57
2023/10/31 05:54:08;;;;;;;0.50;0.50;;;;;;;13.05;100.00;98922.81;5105575;28;20055;-57
2023/10/31 05:56:33;;;;;;;0.50;0.50;;;;;;;13.04;100.00;98931.78;5110744;28;20407;-57
2023/10/31 05:58:58;;;;;;;0.57;0.57;;;;;;;13.02;100.00;98928.34;5098594;28;20035;-57
2023/10/31 06:01:24;;;;;;;0.50;0.50;;;;;;;13.01;100.00;98929.28;5100140;28;20035;-57
2023/10/31 06:03:49;;;;;;;0.60;0.60;;;;;;;13.02;100.00;98944.38;5098354;28;20027;-58
2023/10/31 06:06:15;;;;;;;0.50;0.50;;;;;;;13.00;100.00;98940.88;5092085;28;20212;-58
2023/10/31 06:08:41;;;;;;;0.60;0.60;;;;;;;12.99;100.00;98949.84;5091059;28;20032;-58
2023/10/31 06:11:07;;;;;;;0.60;0.60;;;;;;;13.00;100.00;98951.56;5107788;28;20106;-58
2023/10/31 06:13:33;;;;;;;0.60;0.60;;;;;;;12.96;100.00;98949.19;5102005;28;20467;-58
2023/10/31 06:16:00;;;;;;;0.50;0.50;;;;;;;12.97;100.00;98954.44;5102723;28;20031;-58
2023/10/31 06:18:26;;;;;;;0.60;0.60;;;;;;;13.01;100.00;98957.81;5100791;28;20081;-58
2023/10/31 06:20:52;;;;;;;0.57;0.57;;;;;;;12.99;100.00;98949.84;5109575;28;20417;-58
2023/10/31 06:23:18;;;;;;;0.60;0.60;;;;;;;12.91;100.00;98954.78;5106867;28;20035;-58
2023/10/31 06:25:43;;;;;;;0.50;0.50;;;;;;;12.95;100.00;98964.31;5099684;28;20027;-57
2023/10/31 06:28:09;;;;;;;0.50;0.50;;;;;;;12.95;100.00;98956.31;5099445;28;20471;-58
2023/10/31 06:30:34;;;;;;;0.50;0.50;;;;;;;12.95;100.00;98966.13;5096103;28;20811;-58
2023/10/31 06:33:02;;;;;;;0.60;0.60;;;;;;;12.92;100.00;98958.31;5095641;28;20456;-58
2023/10/31 06:35:28;;;;;;;0.60;0.60;;;;;;;12.92;100.00;98964.50;5097682;28;20032;-58
2023/10/31 06:37:56;;;;;;;0.60;0.60;;;;;;;12.96;100.00;98958.03;5094729;28;20455;-58
2023/10/31 06:40:23;;;;;;;0.60;0.60;;;;;;;13.00;100.00;98961.38;5094114;28;20039;-58
2023/10/31 06:42:48;;;;;;;0.60;0.60;;;;;;;12.96;100.00;98960.69;5099265;28;20023;-58
2023/10/31 06:45:13;;;;;;;0.50;0.50;;;;;;;12.96;100.00;98965.19;5097316;28;20020;-58
2023/10/31 06:47:39;;;;;;;0.60;0.60;;;;;;;12.95;100.00;98958.13;5099202;28;20020;-58
2023/10/31 06:50:07;;;;;;;0.60;0.60;;;;;;;12.97;100.00;98961.56;5098400;28;20078;-58
2023/10/31 06:52:32;;;;;;;0.55;0.55;;;;;;;12.97;100.00;98967.78;5095757;28;20066;-58
2023/10/31 06:54:58;;;;;;;0.60;0.60;;;;;;;12.96;100.00;98967.88;5096437;28;20134;-58
2023/10/31 06:57:23;;;;;;;0.50;0.50;;;;;;;13.00;100.00;98964.91;5078715;28;20479;-58
2023/10/31 06:59:49;;;;;;;0.50;0.50;;;;;;;12.96;100.00;98966.03;5093074;28;20036;-58
2023/10/31 07:02:14;;;;;;;0.50;0.50;;;;;;;12.97;100.00;98970.44;5088345;28;20028;-58
2023/10/31 07:04:40;;;;;;;0.50;0.50;;;;;;;13.02;100.00;98986.22;5105366;28;20019;-58
2023/10/31 07:07:05;;;;;;;0.60;0.60;;;;;;;12.97;100.00;98982.91;5100696;28;20089;-58
2023/10/31 07:09:31;;;;;;;0.50;0.50;;;;;;;13.00;100.00;98988.94;5092728;28;20129;-58
2023/10/31 07:11:56;;;;;;;0.50;0.50;;;;;;;13.05;100.00;98992.22;5102073;28;20024;-58
2023/10/31 07:14:21;;;;;;;0.50;0.50;;;;;;;13.08;100.00;98992.03;5098375;28;20035;-58
2023/10/31 07:16:48;;;;;;;0.52;0.52;;;;;;;13.04;100.00;98995.88;5097396;28;20095;-58
2023/10/31 07:19:14;;;;;;;0.50;0.50;;;;;;;13.10;100.00;99007.97;5098604;28;20782;-58
2023/10/31 07:21:39;;;;;;;0.60;0.60;;;;;;;13.13;100.00;99003.31;5096805;28;20028;-58
2023/10/31 07:24:07;;;;;;;0.50;0.50;;;;;;;13.20;100.00;99012.69;5092974;28;20036;-58
2023/10/31 07:26:32;;;;;;;0.60;0.60;;;;;;;13.18;100.00;99008.38;5091008;28;20028;-58
2023/10/31 07:28:58;;;;;;;0.50;0.50;;;;;;;13.18;100.00;99006.56;5102972;28;20447;-58
2023/10/31 07:31:23;;;;;;;0.60;0.60;;;;;;;13.22;100.00;99009.94;5091645;28;20024;-58
2023/10/31 07:33:49;;;;;;;0.57;0.57;;;;;;;13.23;100.00;99001.81;5089208;28;20032;-58
2023/10/31 07:36:14;;;;;;;0.60;0.60;;;;;;;13.28;100.00;99003.38;5107573;28;20439;-58
2023/10/31 07:38:40;;;;;;;0.52;0.52;;;;;;;13.24;100.00;98992.84;5104579;28;20119;-58
2023/10/31 07:41:05;;;;;;;0.50;0.50;;;;;;;13.32;100.00;99007.56;5093862;28;20111;-58
2023/10/31 07:43:30;;;;;;;0.60;0.60;;;;;;;13.38;100.00;99015.25;5097585;28;20035;-58
2023/10/31 07:45:56;;;;;;;0.50;0.50;;;;;;;13.43;100.00;99015.78;5106550;28;20040;-58
2023/10/31 07:48:21;;;;;;;0.50;0.50;;;;;;;13.50;100.00;99017.16;5096709;28;20084;-58
2023/10/31 07:50:47;;;;;;;0.60;0.60;;;;;;;13.48;100.00;99009.22;5096525;28;20055;-58
2023/10/31 07:53:12;;;;;;;0.50;0.50;;;;;;;13.56;100.00;99022.16;5094434;28;20027;-58
2023/10/31 07:55:37;;;;;;;0.50;0.50;;;;;;;13.56;100.00;99030.16;5107080;28;20035;-58
2023/10/31 07:58:03;;;;;;;0.57;0.57;;;;;;;13.48;100.00;99032.41;5104232;28;20044;-58
2023/10/31 08:00:28;;;;;;;0.52;0.52;;;;;;;13.53;100.00;99033.00;5098011;28;20619;-58
2023/10/31 08:02:54;;;;;;;0.50;0.50;;;;;;;13.60;100.00;99043.22;5100930;28;20035;-58
2023/10/31 08:05:19;;;;;;;0.60;0.60;;;;;;;13.62;100.00;99029.78;5104105;28;20447;-58
2023/10/31 08:07:45;;;;;;;0.50;0.50;;;;;;;13.80;100.00;99044.69;5099541;28;20107;-58
2023/10/31 08:10:10;;;;;;;0.40;0.40;;;;;;;13.82;100.00;99048.97;5105453;28;20028;-58
2023/10/31 08:12:36;;;;;;;0.50;0.50;;;;;;;13.92;100.00;99043.97;5108280;28;20534;-58
2023/10/31 08:15:02;;;;;;;0.50;0.50;;;;;;;13.95;100.00;99049.09;5097806;28;20052;-58
2023/10/31 08:17:27;;;;;;;0.50;0.50;;;;;;;13.94;100.00;99050.03;5111694;28;20396;-58
2023/10/31 08:19:52;;;;;;;0.50;0.50;;;;;;;13.89;100.00;99054.81;5098098;28;20027;-58
2023/10/31 08:22:18;;;;;;;0.50;0.50;;;;;;;13.90;100.00;99059.22;5102704;28;20046;-57
2023/10/31 08:24:43;;;;;;;0.40;0.40;;;;;;;13.93;100.00;99059.03;5109366;28;20118;-58
2023/10/31 08:27:10;;;;;;;0.50;0.50;;;;;;;13.93;100.00;99061.69;5093508;28;20383;-57
2023/10/31 08:29:35;;;;;;;0.40;0.40;;;;;;;13.91;100.00;99063.59;5112014;28;20106;-58
2023/10/31 08:32:01;;;;;;;0.45;0.45;;;;;;;13.99;100.00;99061.31;5080574;28;20177;-58
2023/10/31 08:34:27;;;;;;;0.47;0.47;;;;;;;14.04;100.00;99061.91;5090042;28;20043;-58
2023/10/31 08:36:52;;;;;;;0.50;0.50;;;;;;;14.10;100.00;99064.22;5107449;28;20023;-58
2023/10/31 08:39:18;;;;;;;0.50;0.50;;;;;;;14.10;100.00;99069.56;5093036;28;20155;-58
2023/10/31 08:41:54;;;;;;;0.47;0.47;;;;;;;14.09;100.00;99068.69;5094039;28;20480;-58
2023/10/31 08:44:20;;;;;;;0.50;0.50;;;;;;;13.96;100.00;99075.75;5102035;28;20512;-58
2023/10/31 08:46:45;;;;;;;0.50;0.50;;;;;;;14.00;100.00;99084.44;5103979;28;20031;-58
2023/10/31 08:49:12;;;;;;;0.45;0.45;;;;;;;14.02;100.00;99072.69;5098036;28;20036;-58
2023/10/31 08:51:37;;;;;;;0.40;0.40;;;;;;;14.03;100.00;99076.22;5103901;28;20495;-58
2023/10/31 08:54:03;;;;;;;0.45;0.45;;;;;;;14.05;100.00;99083.19;5109050;28;20053;-57
2023/10/31 08:56:28;;;;;;;0.50;0.50;;;;;;;14.04;100.00;99081.47;5109484;28;20047;-58
2023/10/31 08:58:54;;;;;;;0.50;0.50;;;;;;;14.06;100.00;99079.59;5101128;28;20035;-58
2023/10/31 09:01:19;;;;;;;0.50;0.50;;;;;;;13.97;100.00;99074.78;5087521;28;20048;-58
2023/10/31 09:03:45;;;;;;;0.50;0.50;;;;;;;14.03;100.00;99084.25;5104320;28;20379;-58
2023/10/31 09:06:10;;;;;;;0.50;0.50;;;;;;;14.00;100.00;99081.78;5098909;28;20396;-58
2023/10/31 09:08:36;;;;;;;0.50;0.50;;;;;;;14.00;100.00;99090.63;5100683;28;20035;-58
2023/10/31 09:11:04;;;;;;;0.50;0.50;;;;;;;14.07;100.00;99085.75;5107358;28;20023;-58
2023/10/31 09:13:30;;;;;;;0.45;0.45;;;;;;;14.16;100.00;99090.56;5093297;28;20465;-58
2023/10/31 09:15:56;;;;;;;0.50;0.50;;;;;;;14.43;100.00;99091.56;5103857;28;20026;-58
2023/10/31 09:18:21;;;;;;;0.40;0.40;;;;;;;14.86;100.00;99093.22;5111791;28;20024;-58
2023/10/31 09:20:46;;;;;;;0.50;0.50;;;;;;;15.04;100.00;99093.84;5105314;28;20123;-57
2023/10/31 09:23:12;;;;;;;0.50;0.50;;;;;;;15.26;100.00;99097.69;5100082;28;20521;-58
2023/10/31 09:25:37;;;;;;;0.50;0.50;;;;;;;15.28;100.00;99100.28;5110418;28;20107;-58
2023/10/31 09:28:03;;;;;;;0.40;0.40;;;;;;;15.29;100.00;99092.13;5093474;28;20064;-58
2023/10/31 09:30:28;;;;;;;0.50;0.50;;;;;;;15.29;100.00;99096.63;5072793;28;20036;-57
2023/10/31 09:32:53;;;;;;;0.32;0.32;;;;;;;15.21;100.00;99083.75;5091200;28;20019;-57
2023/10/31 09:35:19;;;;;;;0.40;0.40;;;;;;;15.23;100.00;99089.00;5096161;28;20036;-58
2023/10/31 09:37:48;;;;;;;0.40;0.40;;;;;;;15.22;100.00;99092.66;5091123;28;20024;-57
2023/10/31 09:40:14;;;;;;;0.50;0.50;;;;;;;15.30;100.00;99090.31;5092253;28;20089;-57
2023/10/31 09:42:40;;;;;;;0.43;0.43;;;;;;;15.21;100.00;99094.47;5100185;28;20035;-58
2023/10/31 09:45:06;;;;;;;0.40;0.40;;;;;;;15.01;100.00;99089.53;5094434;28;20040;-58
2023/10/31 09:47:32;;;;;;;0.40;0.40;;;;;;;14.97;100.00;99087.16;5089846;28;20028;-58
2023/10/31 09:49:58;;;;;;;0.50;0.50;;;;;;;15.04;100.00;99094.69;5106474;28;20419;-58
2023/10/31 09:52:24;;;;;;;0.40;0.40;;;;;;;15.52;100.00;99086.13;5108512;28;20031;-58
2023/10/31 09:54:53;;;;;;;0.40;0.40;;;;;;;16.02;100.00;99079.13;5108782;28;20038;-58
2023/10/31 09:57:18;;;;;;;0.40;0.40;;;;;;;16.26;100.00;99090.84;5102956;28;20024;-57
2023/10/31 09:59:44;;;;;;;0.30;0.30;;;;;;;16.20;100.00;99097.50;5103836;28;20088;-58
2023/10/31 10:02:10;;;;;;;0.50;0.50;;;;;;;16.09;100.00;99096.50;5100295;28;20062;-58
2023/10/31 10:04:37;;;;;;;0.50;0.50;;;;;;;16.12;100.00;99097.16;5091792;28;20024;-58
2023/10/31 10:07:03;;;;;;;0.40;0.40;;;;;;;16.12;99.74;99096.31;5096885;28;20077;-58
2023/10/31 10:09:29;;;;;;;0.40;0.40;;;;;;;16.17;99.03;99100.38;5092662;28;20036;-58
2023/10/31 10:11:55;;;;;;;0.40;0.40;;;;;;;16.21;99.56;99099.19;5108106;28;20103;-57
2023/10/31 10:14:24;;;;;;;0.30;0.30;;;;;;;16.25;98.77;99094.47;5095065;28;20052;-57
2023/10/31 10:16:49;;;;;;;0.40;0.40;;;;;;;16.33;99.31;99092.09;5091065;28;20040;-58
2023/10/31 10:19:19;;;;;;;0.40;0.40;;;;;;;16.33;98.66;99101.03;5100835;28;20035;-58
2023/10/31 10:21:56;;;;;;;0.40;0.40;;;;;;;16.09;97.56;99088.47;5105730;28;20031;-59
2023/10/31 10:24:24;;;;;;;0.30;0.30;;;;;;;16.13;98.07;99100.72;5088688;28;20108;-58
2023/10/31 10:26:51;;;;;;;0.40;0.40;;;;;;;16.06;98.78;99100.28;5110761;28;20459;-58
2023/10/31 10:29:17;;;;;;;0.40;0.40;;;;;;;15.96;98.60;99095.66;5110071;28;20032;-58
2023/10/31 10:31:42;;;;;;;0.40;0.40;;;;;;;15.90;98.86;99098.75;5098372;28;20028;-58
2023/10/31 10:34:09;;;;;;;0.40;0.40;;;;;;;15.86;99.42;99095.44;5110327;28;20033;-58
2023/10/31 10:36:35;;;;;;;0.40;0.40;;;;;;;15.79;99.63;99105.72;5107435;28;20036;-58
2023/10/31 10:39:01;;;;;;;0.40;0.40;;;;;;;15.68;99.96;99105.56;5089273;28;20036;-58
2023/10/31 10:41:28;;;;;;;0.35;0.35;;;;;;;15.67;100.00;99100.31;5087544;28;20028;-58
2023/10/31 10:44:06;;;;;;;0.40;0.40;;;;;;;15.66;100.00;99102.16;5094656;28;20503;-56
2023/10/31 10:46:36;;;;;;;0.30;0.30;;;;;;;15.58;100.00;99112.50;5100258;28;20402;-56
2023/10/31 10:49:07;;;;;;;0.40;0.40;;;;;;;15.51;100.00;99108.53;5087503;28;20089;-56
2023/10/31 10:52:01;;;;;;;0.40;0.40;;;;;;;15.55;100.00;99103.84;5089057;28;20501;-56
2023/10/31 10:54:31;;;;;;;;;;;;;;;15.53;100.00;99114.63;5107676;28;20031;-57
2023/10/31 10:57:13;;;;;;;0.30;0.30;;;;;;;15.63;100.00;99107.69;5095050;28;19943;-56
2023/10/31 10:59:42;;;;;;;0.40;0.40;;;;;;;15.79;100.00;99110.22;5091283;28;20216;-56
2023/10/31 11:02:07;;;;;;;0.30;0.30;;;;;;;15.86;100.00;99113.34;5089438;28;20024;-57
2023/10/31 11:04:34;;;;;;;0.32;0.32;;;;;;;15.74;100.00;99102.50;5091876;28;20020;-57
2023/10/31 11:07:01;;;;;;;0.40;0.40;;;;;;;15.70;100.00;99109.00;5089082;28;20107;-56
2023/10/31 11:09:27;;;;;;;0.40;0.40;;;;;;;15.67;100.00;99109.22;5090211;28;20035;-56
2023/10/31 11:11:54;;;;;;;0.50;0.50;;;;;;;15.60;100.00;99105.22;5090248;28;20020;-56
2023/10/31 11:14:20;;;;;;;0.40;0.40;;;;;;;15.56;100.00;99105.53;5089501;28;20054;-56
2023/10/31 11:16:52;;;;;;;0.38;0.38;;;;;;;15.56;100.00;99101.06;5091213;28;20111;-57
2023/10/31 11:19:18;;;;;;;0.32;0.32;;;;;;;15.56;100.00;99098.38;5096065;28;20042;-57
2023/10/31 11:22:00;;;;;;;0.30;0.30;;;;;;;15.47;100.00;99098.97;5109238;28;20080;-56